Saint-Jean-De-Matha, Canada
Current Conditions -  °F | °C
As of 11:00 PM on Friday 24 Oct 2014 (Local Time) from CYRQ Reporting Station
Clear Clear  
Wind Chill: 34°   Ceiling: Unl
Heat Index: 34°   Visibility: 9mi
Dew Point: 32°   Wind: 2mph
Humidity: 93%   Direction: NA
Pressure: 29.78"   Gusts: NA
Location:  46.22°N, 73.53°W
Report Text: CYRQ 250300Z AUTO VRB02KT 9SM CLR 01/00 A2978 RMK SLP088
Loading
Personal Weather Stations






























Interactive Weather Map
Tropical Storm Tracking
New forecast layout! Learn more

10-Day Weather Forecast

Advertisements
Track Severe Weather on mobile